Time;durP1;ratioP1;P1;durP2;ratioP2;P2;SDS_P1;SDS_P2;PMS_P1;PMS_P2;Temp;Humidity;BMP_temperature;BMP_pressure;BME280_temperature;BME280_humidity;BME280_pressure;Samples;Min_cycle;Max_cycle;Signal;HPM_P1;HPM_P2
2023/05/26 00:00:36;;;;;;;5.15;4.18;;;;;;;14.14;86.83;99370.28;4141699;28;20288;-45
2023/05/26 00:02:39;;;;;;;4.43;3.42;;;;;;;14.11;86.91;99370.78;4110524;28;20261;-45
2023/05/26 00:04:43;;;;;;;5.45;3.50;;;;;;;14.14;86.73;99370.28;4110767;28;20231;-48
2023/05/26 00:06:46;;;;;;;5.90;4.38;;;;;;;13.97;86.52;99371.38;4111405;28;20218;-46
2023/05/26 00:08:47;;;;;;;6.20;4.30;;;;;;;13.82;87.27;99376.63;4112745;28;20258;-46
2023/05/26 00:10:49;;;;;;;6.10;3.58;;;;;;;13.72;88.48;99380.06;4143758;28;20227;-46
2023/05/26 00:12:51;;;;;;;7.05;4.47;;;;;;;13.65;88.52;99373.88;4112525;28;20242;-45
2023/05/26 00:14:53;;;;;;;7.07;4.57;;;;;;;13.60;88.17;99375.69;4121048;28;20246;-45
2023/05/26 00:16:55;;;;;;;6.97;5.10;;;;;;;13.44;89.24;99373.78;4116437;28;20218;-46
2023/05/26 00:18:56;;;;;;;7.28;4.03;;;;;;;13.38;89.81;99370.06;4143819;28;20221;-45
2023/05/26 00:20:58;;;;;;;4.57;4.15;;;;;;;13.56;89.18;99378.13;4111310;28;20298;-45
2023/05/26 00:23:00;;;;;;;6.07;4.07;;;;;;;13.58;88.94;99367.69;4110289;28;20227;-45
2023/05/26 00:25:03;;;;;;;3.78;3.47;;;;;;;13.58;88.94;99375.94;4143387;28;20300;-46
2023/05/26 00:27:06;;;;;;;4.28;3.70;;;;;;;13.43;89.59;99367.44;4145645;28;20635;-46
2023/05/26 00:29:08;;;;;;;5.40;4.90;;;;;;;13.45;89.65;99365.28;4110360;28;20226;-45
2023/05/26 00:31:22;;;;;;;6.45;4.15;;;;;;;13.61;88.95;99364.47;4107254;28;20207;-45
2023/05/26 00:33:24;;;;;;;6.75;4.22;;;;;;;13.62;88.57;99371.63;4109694;28;20712;-45
2023/05/26 00:35:26;;;;;;;5.97;4.40;;;;;;;13.69;88.69;99366.78;4108982;28;20799;-45
2023/05/26 00:37:27;;;;;;;3.83;3.40;;;;;;;13.76;88.07;99378.47;4140110;28;20268;-45
2023/05/26 00:39:30;;;;;;;4.35;4.00;;;;;;;13.75;87.39;99381.44;4109997;28;20655;-46
2023/05/26 00:41:32;;;;;;;5.97;4.28;;;;;;;13.78;87.35;99379.03;4143075;28;20309;-46
2023/05/26 00:43:34;;;;;;;4.65;4.10;;;;;;;13.74;87.45;99383.38;4110151;28;20724;-45
2023/05/26 00:45:36;;;;;;;8.15;5.05;;;;;;;13.80;87.28;99382.41;4109645;28;20217;-45
2023/05/26 00:47:38;;;;;;;4.90;4.20;;;;;;;13.72;87.26;99381.97;4126321;28;20214;-46
2023/05/26 00:49:40;;;;;;;5.30;4.75;;;;;;;13.67;87.79;99377.22;4110961;28;20257;-45
2023/05/26 00:51:43;;;;;;;10.13;3.85;;;;;;;13.65;87.63;99382.16;4109787;28;20290;-46
2023/05/26 00:53:45;;;;;;;5.75;4.25;;;;;;;13.63;87.76;99378.78;4142089;28;20214;-46
2023/05/26 00:55:51;;;;;;;5.47;4.53;;;;;;;13.63;87.79;99372.47;4110809;28;20585;-45
2023/05/26 00:57:52;;;;;;;6.90;4.45;;;;;;;13.51;87.74;99369.75;4123430;28;20260;-45
2023/05/26 00:59:56;;;;;;;5.68;4.32;;;;;;;13.48;88.13;99374.94;4106558;28;20240;-46
2023/05/26 01:01:57;;;;;;;5.07;4.65;;;;;;;13.25;88.75;99370.38;4138086;28;20241;-45
2023/05/26 01:03:59;;;;;;;5.40;4.20;;;;;;;13.20;89.93;99361.22;4112177;28;20211;-45
2023/05/26 01:06:01;;;;;;;7.18;4.55;;;;;;;13.21;89.51;99358.22;4110626;28;20725;-47
2023/05/26 01:08:03;;;;;;;6.25;4.85;;;;;;;12.84;91.18;99362.41;4109194;28;20319;-45
2023/05/26 01:10:06;;;;;;;4.88;4.13;;;;;;;12.92;91.76;99364.78;4140798;28;20264;-46
2023/05/26 01:12:13;;;;;;;7.00;4.05;;;;;;;13.01;91.40;99368.81;4126786;28;20617;-46
2023/05/26 01:14:28;;;;;;;6.88;5.40;;;;;;;12.70;93.30;99349.22;4142652;28;20356;-45
2023/05/26 01:16:35;;;;;;;5.30;4.40;;;;;;;12.74;92.65;99362.19;4125931;28;20265;-45
2023/05/26 01:19:30;;;;;;;5.00;4.60;;;;;;;12.51;93.75;99356.75;4143174;28;20243;-46
2023/05/26 01:21:42;;;;;;;5.28;4.05;;;;;;;12.91;92.19;99363.09;4121929;28;20262;-45
2023/05/26 01:24:00;;;;;;;6.72;4.43;;;;;;;12.89;91.73;99359.75;4110727;28;20233;-45
2023/05/26 01:26:23;;;;;;;5.32;4.82;;;;;;;12.91;91.38;99368.56;4141059;28;20580;-45
2023/05/26 01:28:27;;;;;;;5.93;4.82;;;;;;;12.91;91.43;99356.78;4123773;28;20669;-45
2023/05/26 01:30:29;;;;;;;9.30;4.93;;;;;;;12.88;91.66;99355.34;4125699;28;20218;-46
2023/05/26 01:32:31;;;;;;;6.03;5.07;;;;;;;12.81;91.14;99351.91;4143490;28;20229;-46
2023/05/26 01:34:34;;;;;;;5.20;4.68;;;;;;;12.82;91.70;99356.31;4125399;28;20205;-45
2023/05/26 01:36:42;;;;;;;7.57;4.00;;;;;;;12.84;91.54;99356.09;4125333;28;20210;-45
2023/05/26 01:38:44;;;;;;;7.38;5.72;;;;;;;12.80;91.05;99355.75;4107121;28;20210;-46
2023/05/26 01:40:54;;;;;;;4.53;4.13;;;;;;;12.78;90.99;99357.88;4111713;28;20214;-45
2023/05/26 01:43:03;;;;;;;6.22;4.53;;;;;;;12.77;91.16;99356.22;4142077;28;20247;-45
2023/05/26 01:45:11;;;;;;;5.28;4.40;;;;;;;12.70;91.28;99361.00;4110448;28;20206;-45
2023/05/26 01:47:14;;;;;;;4.65;4.25;;;;;;;12.71;91.32;99357.19;4123951;28;20220;-45
2023/05/26 01:49:20;;;;;;;4.15;3.85;;;;;;;12.62;91.45;99358.66;4124678;28;20262;-45
2023/05/26 01:51:23;;;;;;;4.60;4.13;;;;;;;12.59;91.17;99359.16;4141686;28;20248;-47
2023/05/26 01:53:28;;;;;;;5.30;4.75;;;;;;;12.61;91.66;99359.72;4127673;28;20257;-45
2023/05/26 01:55:30;;;;;;;5.65;5.15;;;;;;;12.58;91.64;99362.94;4116504;28;20269;-46
2023/05/26 01:57:32;;;;;;;5.32;4.80;;;;;;;12.52;91.18;99369.44;4107759;28;20635;-45
2023/05/26 01:59:34;;;;;;;9.45;4.97;;;;;;;12.48;91.87;99365.47;4125782;28;20213;-45
2023/05/26 02:01:37;;;;;;;5.70;4.78;;;;;;;12.50;91.95;99370.75;4107246;28;20203;-46
2023/05/26 02:03:42;;;;;;;4.55;4.25;;;;;;;12.45;92.20;99363.19;4108716;28;20317;-45
2023/05/26 02:05:44;;;;;;;6.30;4.43;;;;;;;12.42;92.70;99365.59;4126209;28;20213;-46
2023/05/26 02:07:46;;;;;;;5.25;4.57;;;;;;;12.42;92.53;99365.59;4142193;28;20209;-45
2023/05/26 02:09:48;;;;;;;5.97;4.88;;;;;;;12.43;92.21;99365.38;4113972;28;20432;-45
2023/05/26 02:11:50;;;;;;;5.30;4.78;;;;;;;12.43;92.43;99359.06;4108081;28;20215;-45
2023/05/26 02:13:51;;;;;;;6.03;5.32;;;;;;;12.43;92.41;99365.38;4124497;28;20206;-45
2023/05/26 02:15:53;;;;;;;5.38;4.93;;;;;;;12.45;92.40;99365.94;4124655;28;20220;-45
2023/05/26 02:17:57;;;;;;;6.88;4.80;;;;;;;12.42;92.08;99358.22;4140986;28;20223;-45
2023/05/26 02:20:00;;;;;;;5.07;4.50;;;;;;;12.42;92.18;99355.47;4109996;28;20211;-45
2023/05/26 02:22:02;;;;;;;11.85;5.70;;;;;;;12.38;91.89;99359.75;4140328;28;20233;-45
2023/05/26 02:24:04;;;;;;;5.97;5.30;;;;;;;12.40;92.66;99365.84;4111538;28;20207;-46
2023/05/26 02:26:06;;;;;;;8.23;5.93;;;;;;;12.38;91.83;99362.50;4107482;28;20215;-47
2023/05/26 02:28:08;;;;;;;6.25;5.30;;;;;;;12.33;92.25;99365.16;4124063;28;20214;-46
2023/05/26 02:30:14;;;;;;;7.85;5.25;;;;;;;12.37;92.46;99360.03;4137650;28;20630;-46
2023/05/26 02:32:16;;;;;;;8.50;5.47;;;;;;;12.26;92.78;99358.97;4139154;28;20747;-45
2023/05/26 02:34:18;;;;;;;7.28;5.82;;;;;;;12.27;92.88;99355.13;4120344;28;20487;-45
2023/05/26 02:36:20;;;;;;;6.85;5.70;;;;;;;12.16;93.23;99346.91;4139188;28;20205;-45
2023/05/26 02:38:22;;;;;;;7.70;5.93;;;;;;;12.16;93.34;99346.91;4137500;28;20201;-45
2023/05/26 02:40:24;;;;;;;6.13;5.57;;;;;;;12.14;93.38;99349.91;4119569;28;20648;-46
2023/05/26 02:42:26;;;;;;;7.50;5.45;;;;;;;12.12;93.33;99351.22;4125253;28;20266;-46
2023/05/26 02:44:28;;;;;;;5.63;4.97;;;;;;;12.10;93.33;99343.22;4159117;28;20262;-45
2023/05/26 02:46:29;;;;;;;6.40;5.85;;;;;;;12.17;93.64;99349.41;4110665;28;20228;-46
2023/05/26 02:48:31;;;;;;;8.48;5.03;;;;;;;12.09;93.79;99346.19;4088680;28;20219;-45
2023/05/26 02:50:33;;;;;;;6.03;5.32;;;;;;;12.00;93.68;99353.13;4106441;28;20294;-45
2023/05/26 02:52:35;;;;;;;5.13;4.72;;;;;;;11.96;93.59;99350.00;4110424;28;20233;-45
2023/05/26 02:54:36;;;;;;;5.47;5.03;;;;;;;11.90;93.73;99348.22;4127997;28;20213;-45
2023/05/26 02:56:38;;;;;;;7.55;5.88;;;;;;;11.88;93.93;99347.63;4107577;28;20214;-46
2023/05/26 02:58:40;;;;;;;7.30;5.45;;;;;;;11.88;93.73;99350.38;4086760;28;20214;-45
2023/05/26 03:00:42;;;;;;;5.70;5.20;;;;;;;11.87;93.60;99354.19;4124282;28;20596;-45
2023/05/26 03:02:44;;;;;;;6.05;5.10;;;;;;;11.85;93.84;99345.34;4106974;28;20711;-47
2023/05/26 03:04:46;;;;;;;6.63;5.82;;;;;;;11.80;93.33;99348.00;4140923;28;20220;-46
2023/05/26 03:06:47;;;;;;;7.32;5.80;;;;;;;11.84;93.49;99348.34;4112573;28;20215;-45
2023/05/26 03:08:49;;;;;;;7.35;5.43;;;;;;;11.85;93.98;99345.34;4121216;28;20214;-47
2023/05/26 03:10:51;;;;;;;5.70;5.25;;;;;;;11.84;93.60;99353.84;4103034;28;20218;-45
2023/05/26 03:13:12;;;;;;;6.00;5.35;;;;;;;11.77;93.65;99342.97;4112234;28;20725;-45
2023/05/26 03:15:13;;;;;;;6.35;5.75;;;;;;;11.68;94.29;99344.41;4124286;28;20202;-45
2023/05/26 03:17:16;;;;;;;6.38;5.72;;;;;;;11.70;94.04;99342.25;4141845;28;20216;-46
2023/05/26 03:19:18;;;;;;;5.47;4.97;;;;;;;11.71;94.38;99338.44;4110999;28;20202;-45
2023/05/26 03:21:20;;;;;;;6.30;5.38;;;;;;;11.65;94.48;99331.16;4107355;28;20203;-45
2023/05/26 03:23:42;;;;;;;5.18;4.70;;;;;;;11.64;94.50;99331.41;4103980;28;20230;-46
2023/05/26 03:25:45;;;;;;;7.93;5.18;;;;;;;11.65;94.37;99333.06;4111143;28;20211;-45
2023/05/26 03:27:47;;;;;;;5.88;5.38;;;;;;;11.63;94.58;99336.03;4099149;28;20637;-46
2023/05/26 03:29:50;;;;;;;4.53;4.13;;;;;;;11.61;94.54;99340.94;4128244;28;20209;-45
2023/05/26 03:31:51;;;;;;;5.70;5.10;;;;;;;11.59;94.53;99343.09;4128211;28;20220;-45
2023/05/26 03:34:00;;;;;;;6.40;5.80;;;;;;;11.51;94.30;99343.38;4124858;28;20214;-45
2023/05/26 03:36:02;;;;;;;5.15;4.75;;;;;;;11.50;94.96;99341.72;4112603;28;20203;-45
2023/05/26 03:38:04;;;;;;;5.78;5.18;;;;;;;11.52;94.99;99344.22;4097533;28;20216;-46
2023/05/26 03:40:06;;;;;;;6.22;5.30;;;;;;;11.47;95.04;99346.84;4142899;28;20216;-46
2023/05/26 03:42:08;;;;;;;5.80;5.20;;;;;;;11.48;94.99;99343.00;4111801;28;20231;-45
2023/05/26 03:44:10;;;;;;;6.28;5.72;;;;;;;11.42;94.70;99344.81;4122604;28;20229;-45
2023/05/26 03:46:12;;;;;;;9.30;5.28;;;;;;;11.43;95.29;99346.47;4109823;28;20213;-45
2023/05/26 03:48:14;;;;;;;5.50;5.10;;;;;;;11.41;95.19;99348.63;4125958;28;20210;-45
2023/05/26 03:50:16;;;;;;;6.60;5.10;;;;;;;11.37;95.12;99350.13;4140880;28;20201;-45
2023/05/26 03:52:29;;;;;;;7.72;5.13;;;;;;;11.33;95.30;99346.22;4139268;28;20602;-46
2023/05/26 03:54:32;;;;;;;5.93;5.32;;;;;;;11.31;95.17;99348.34;4120766;28;20829;-45
2023/05/26 03:56:34;;;;;;;6.38;5.35;;;;;;;11.32;95.42;99350.00;4142063;28;20738;-45
2023/05/26 03:58:36;;;;;;;5.65;4.72;;;;;;;11.31;95.47;99353.81;4141575;28;20633;-45
2023/05/26 04:00:38;;;;;;;5.88;5.13;;;;;;;11.30;95.26;99352.16;4123894;28;20682;-45
2023/05/26 04:02:41;;;;;;;6.65;5.90;;;;;;;11.26;95.63;99359.19;4107911;28;20226;-45
2023/05/26 04:04:43;;;;;;;5.57;5.03;;;;;;;11.29;95.53;99355.97;4112670;28;20203;-45
2023/05/26 04:06:45;;;;;;;8.13;5.38;;;;;;;11.25;95.63;99362.97;4115982;28;20219;-45
2023/05/26 04:08:47;;;;;;;7.00;5.75;;;;;;;11.28;95.83;99359.78;4142617;28;20209;-46
2023/05/26 04:10:49;;;;;;;5.90;5.22;;;;;;;11.23;95.63;99356.09;4144319;28;20221;-45
2023/05/26 04:12:51;;;;;;;6.57;5.97;;;;;;;11.24;95.78;99357.75;4112119;28;20234;-47
2023/05/26 04:14:53;;;;;;;5.45;4.95;;;;;;;11.29;96.09;99366.94;4126560;28;20214;-47
2023/05/26 04:16:55;;;;;;;5.97;5.47;;;;;;;11.27;95.71;99362.75;4113036;28;20214;-45
2023/05/26 04:19:01;;;;;;;6.75;5.72;;;;;;;11.30;95.96;99356.81;4127496;28;20216;-44
2023/05/26 04:21:03;;;;;;;6.13;5.40;;;;;;;11.30;95.95;99359.56;4109554;28;20645;-45
2023/05/26 04:23:05;;;;;;;6.38;5.78;;;;;;;11.31;96.24;99359.28;4112146;28;20685;-45
2023/05/26 04:25:07;;;;;;;9.32;5.45;;;;;;;11.34;96.28;99358.84;4111900;28;20215;-45
2023/05/26 04:27:09;;;;;;;6.72;6.22;;;;;;;11.41;96.33;99361.47;4112104;28;20210;-45
2023/05/26 04:29:12;;;;;;;6.50;6.00;;;;;;;11.37;96.62;99363.84;4106481;28;20206;-47
2023/05/26 04:31:16;;;;;;;6.43;6.03;;;;;;;11.35;96.34;99366.00;4123696;28;20295;-45
2023/05/26 04:33:20;;;;;;;6.43;5.82;;;;;;;11.33;96.35;99365.41;4143582;28;20229;-45
2023/05/26 04:35:22;;;;;;;7.03;5.97;;;;;;;11.39;96.49;99374.59;4109573;28;20711;-46
2023/05/26 04:37:24;;;;;;;6.60;5.97;;;;;;;11.39;96.53;99378.16;4107277;28;20214;-45
2023/05/26 04:39:32;;;;;;;6.68;5.95;;;;;;;11.41;96.60;99373.28;4106569;28;20207;-44
2023/05/26 04:41:34;;;;;;;6.47;5.97;;;;;;;11.45;96.66;99370.91;4155453;28;20211;-46
2023/05/26 04:43:40;;;;;;;7.90;6.78;;;;;;;11.49;96.88;99367.47;4108926;28;20219;-46
2023/05/26 04:45:43;;;;;;;7.35;6.18;;;;;;;11.52;96.68;99369.72;4109900;28;20211;-47
2023/05/26 04:47:46;;;;;;;9.98;6.82;;;;;;;11.48;96.88;99371.28;4140853;28;20217;-46
2023/05/26 04:49:48;;;;;;;7.80;7.05;;;;;;;11.56;97.00;99373.66;4123459;28;20234;-45
2023/05/26 04:51:54;;;;;;;6.82;6.15;;;;;;;11.55;96.59;99361.03;4108034;28;20212;-45
2023/05/26 04:53:56;;;;;;;6.35;5.63;;;;;;;11.61;96.75;99368.34;4139683;28;20300;-47
2023/05/26 04:55:59;;;;;;;7.90;7.07;;;;;;;11.56;96.70;99364.63;4109085;28;20210;-46
2023/05/26 04:58:06;;;;;;;9.98;6.63;;;;;;;11.73;96.72;99369.22;4119547;28;20210;-47
2023/05/26 05:00:13;;;;;;;6.25;5.65;;;;;;;11.63;96.46;99371.69;4107948;28;20210;-45
2023/05/26 05:02:15;;;;;;;5.97;5.47;;;;;;;11.64;96.77;99367.88;4105968;28;20235;-45
2023/05/26 05:04:17;;;;;;;6.63;5.97;;;;;;;11.70;96.36;99369.66;4123806;28;20224;-46
2023/05/26 05:06:20;;;;;;;7.15;6.20;;;;;;;11.68;96.28;99366.34;4124959;28;20233;-46
2023/05/26 05:08:22;;;;;;;8.85;5.60;;;;;;;11.75;96.19;99367.06;4122791;28;20206;-45
2023/05/26 05:10:25;;;;;;;6.07;4.97;;;;;;;11.86;95.96;99370.88;4091492;28;20294;-47
2023/05/26 05:12:27;;;;;;;6.60;5.90;;;;;;;11.93;95.86;99369.72;4116100;28;20936;-45
2023/05/26 05:14:29;;;;;;;8.40;5.78;;;;;;;11.99;95.48;99378.88;4103856;28;20246;-45
2023/05/26 05:16:31;;;;;;;8.52;5.97;;;;;;;12.05;94.94;99370.50;4108272;28;20210;-45
2023/05/26 05:18:33;;;;;;;7.45;6.55;;;;;;;12.15;94.70;99369.91;4103242;28;20637;-45
2023/05/26 05:20:36;;;;;;;6.28;5.65;;;;;;;12.19;94.82;99380.19;4108133;28;20664;-45
2023/05/26 05:22:38;;;;;;;9.07;6.28;;;;;;;12.28;94.23;99384.25;4122469;28;20237;-45
2023/05/26 05:24:41;;;;;;;6.13;5.53;;;;;;;12.34;94.66;99380.53;4108576;28;20665;-45
2023/05/26 05:26:44;;;;;;;9.52;7.15;;;;;;;12.43;95.33;99384.56;4123563;28;20328;-45
2023/05/26 05:28:46;;;;;;;10.23;6.05;;;;;;;12.56;97.24;99384.31;4124646;28;20821;-45
2023/05/26 05:30:49;;;;;;;8.93;7.15;;;;;;;12.74;96.97;99394.31;4112324;28;20214;-45
2023/05/26 05:32:52;;;;;;;11.02;7.38;;;;;;;12.95;97.20;99394.53;4126353;28;20226;-45
2023/05/26 05:34:55;;;;;;;6.57;5.93;;;;;;;13.16;96.60;99393.84;4106486;28;20306;-45
2023/05/26 05:36:57;;;;;;;7.30;6.70;;;;;;;13.18;95.44;99399.94;4124212;28;20207;-45
2023/05/26 05:39:00;;;;;;;6.18;5.57;;;;;;;13.01;94.88;99393.56;4108248;28;20249;-45
2023/05/26 05:41:05;;;;;;;8.18;5.68;;;;;;;13.10;93.15;99392.09;4125465;28;20217;-46
2023/05/26 05:43:08;;;;;;;8.25;6.63;;;;;;;12.82;94.24;99394.78;4124726;28;20229;-45
2023/05/26 05:45:10;;;;;;;7.22;6.43;;;;;;;12.82;94.61;99393.94;4109772;28;20211;-45
2023/05/26 05:47:16;;;;;;;7.28;6.25;;;;;;;13.25;95.50;99397.88;4105916;28;20823;-45
2023/05/26 05:49:18;;;;;;;6.45;5.85;;;;;;;13.48;94.34;99392.28;4091870;28;20219;-45
2023/05/26 05:51:21;;;;;;;7.38;6.70;;;;;;;13.53;93.96;99394.28;4125195;28;20234;-46
2023/05/26 05:53:24;;;;;;;8.88;4.88;;;;;;;13.82;93.17;99388.47;4107758;28;20257;-44
2023/05/26 05:55:43;;;;;;;9.07;5.28;;;;;;;13.97;91.59;99391.47;4126372;28;20639;-46
2023/05/26 05:57:49;;;;;;;6.97;6.22;;;;;;;13.85;90.94;99392.66;4136875;28;21703;-45
2023/05/26 05:59:51;;;;;;;7.80;5.82;;;;;;;14.23;91.53;99390.00;4140797;28;20703;-44
2023/05/26 06:03:58;;;;;;;10.35;6.38;;;;;;;14.47;90.10;99402.47;4120993;28;20272;-45
2023/05/26 06:06:00;;;;;;;6.18;5.38;;;;;;;14.16;89.61;99395.63;4109876;28;20209;-45
2023/05/26 06:08:04;;;;;;;6.78;5.25;;;;;;;14.45;91.45;99393.63;4155126;28;20583;-45
2023/05/26 06:10:08;;;;;;;13.38;5.47;;;;;;;14.52;89.99;99395.13;4125704;28;20733;-45
2023/05/26 06:12:10;;;;;;;5.88;5.20;;;;;;;14.74;88.78;99401.50;4110991;28;20692;-46
2023/05/26 06:14:15;;;;;;;5.55;4.97;;;;;;;15.03;87.81;99402.16;4107565;28;20227;-44
2023/05/26 06:16:18;;;;;;;7.40;5.30;;;;;;;15.24;86.03;99399.34;4120936;28;20248;-45
2023/05/26 06:18:20;;;;;;;9.80;5.25;;;;;;;15.40;85.49;99409.50;4122129;28;20209;-47
2023/05/26 06:20:22;;;;;;;5.65;4.78;;;;;;;14.91;85.91;99405.00;4124915;28;20738;-45
2023/05/26 06:22:24;;;;;;;7.72;4.53;;;;;;;15.31;86.48;99408.25;4120510;28;20233;-45
2023/05/26 06:24:26;;;;;;;5.50;5.00;;;;;;;15.15;85.26;99406.41;4119817;28;20634;-45
2023/05/26 06:26:29;;;;;;;7.38;4.78;;;;;;;15.38;84.07;99411.69;4129803;28;20255;-45
2023/05/26 06:28:30;;;;;;;6.05;4.65;;;;;;;15.50;83.87;99414.31;4107938;28;20211;-46
2023/05/26 06:30:32;;;;;;;6.82;4.45;;;;;;;15.42;84.46;99418.34;4123449;28;20220;-46
2023/05/26 06:32:35;;;;;;;5.82;5.13;;;;;;;15.47;83.85;99421.16;4125466;28;20287;-45
2023/05/26 06:34:37;;;;;;;7.88;4.78;;;;;;;15.84;83.14;99416.56;4127281;28;20208;-45
2023/05/26 06:36:39;;;;;;;5.20;4.05;;;;;;;16.15;82.64;99421.28;4123863;28;20300;-45
2023/05/26 06:38:41;;;;;;;5.57;4.72;;;;;;;16.34;81.74;99414.25;4129573;28;20209;-45
2023/05/26 06:40:43;;;;;;;7.65;4.28;;;;;;;16.57;80.72;99416.63;4124928;28;20700;-45
2023/05/26 06:42:46;;;;;;;6.07;4.18;;;;;;;16.45;80.30;99410.50;4106680;28;20648;-48
2023/05/26 06:44:56;;;;;;;6.63;4.72;;;;;;;16.81;79.97;99405.97;4122492;28;20202;-45
2023/05/26 06:46:58;;;;;;;6.00;5.22;;;;;;;16.30;79.49;99407.56;4122565;28;20673;-45
2023/05/26 06:49:00;;;;;;;6.85;5.30;;;;;;;16.14;81.74;99414.09;4108337;28;20233;-45
2023/05/26 06:51:03;;;;;;;6.05;3.90;;;;;;;16.53;81.04;99415.50;4108351;28;20214;-45
2023/05/26 06:53:05;;;;;;;6.70;5.35;;;;;;;16.88;79.69;99407.41;4122901;28;20226;-45
2023/05/26 06:55:07;;;;;;;9.45;5.57;;;;;;;17.03;79.22;99410.25;4109224;28;20235;-44
2023/05/26 06:57:10;;;;;;;7.15;4.72;;;;;;;17.16;78.30;99409.75;4125010;28;20217;-45
2023/05/26 06:59:17;;;;;;;12.05;5.03;;;;;;;17.41;77.43;99420.94;4112656;28;20237;-45
2023/05/26 07:01:20;;;;;;;5.10;4.13;;;;;;;17.55;77.12;99414.63;4126310;28;20232;-46
2023/05/26 07:03:22;;;;;;;5.65;4.18;;;;;;;17.42;76.77;99414.31;4122903;28;20313;-45
2023/05/26 07:05:23;;;;;;;6.40;4.70;;;;;;;17.35;76.93;99413.69;4125565;28;20301;-45
2023/05/26 07:07:25;;;;;;;5.40;4.07;;;;;;;17.53;76.21;99411.28;4130310;28;20205;-45
2023/05/26 07:09:27;;;;;;;5.63;4.45;;;;;;;17.39;77.63;99409.34;4111125;28;20211;-45
2023/05/26 07:11:29;;;;;;;5.47;3.50;;;;;;;17.77;76.01;99414.38;4127529;28;20206;-45
2023/05/26 07:13:31;;;;;;;5.07;4.50;;;;;;;17.94;75.91;99417.75;4124361;28;20242;-45
2023/05/26 07:15:33;;;;;;;6.45;4.75;;;;;;;18.09;74.83;99410.28;4124627;28;20692;-45
2023/05/26 07:17:35;;;;;;;6.07;4.20;;;;;;;18.46;74.14;99410.00;4108722;28;20207;-45
2023/05/26 07:19:36;;;;;;;5.72;4.28;;;;;;;18.40;73.75;99411.13;4126904;28;21278;-45
2023/05/26 07:21:39;;;;;;;7.00;4.55;;;;;;;18.60;73.40;99411.09;4125965;28;20199;-45
2023/05/26 07:23:41;;;;;;;5.97;4.88;;;;;;;18.64;72.66;99413.03;4139098;28;20225;-45
2023/05/26 07:25:43;;;;;;;6.60;5.07;;;;;;;18.70;71.95;99414.69;4142313;28;20264;-45
2023/05/26 07:27:45;;;;;;;6.50;4.65;;;;;;;18.35;71.91;99419.44;4127448;28;20210;-45
2023/05/26 07:29:47;;;;;;;4.85;4.20;;;;;;;18.39;71.70;99420.56;4128853;28;20719;-45
2023/05/26 07:31:49;;;;;;;7.88;4.13;;;;;;;18.53;72.76;99416.09;4126923;28;20216;-46
2023/05/26 07:33:53;;;;;;;5.45;4.55;;;;;;;18.65;72.00;99417.47;4126314;28;20264;-46
2023/05/26 07:35:55;;;;;;;11.35;5.10;;;;;;;18.45;72.27;99422.22;4125113;28;20297;-46
2023/05/26 07:37:58;;;;;;;7.95;4.53;;;;;;;18.79;72.58;99412.97;4142439;28;20201;-45
2023/05/26 07:40:00;;;;;;;4.63;4.13;;;;;;;19.01;70.36;99424.59;4125545;28;20252;-45
2023/05/26 07:42:02;;;;;;;5.88;4.55;;;;;;;18.76;71.92;99416.34;4125591;28;20296;-45
2023/05/26 07:44:03;;;;;;;5.82;4.35;;;;;;;18.85;71.67;99419.38;4125519;28;20711;-45
2023/05/26 07:46:05;;;;;;;6.55;5.15;;;;;;;19.03;70.74;99416.81;4128749;28;20301;-45
2023/05/26 07:48:07;;;;;;;7.18;4.25;;;;;;;19.04;70.01;99417.66;4125134;28;20214;-45
2023/05/26 07:50:09;;;;;;;6.00;5.05;;;;;;;19.22;70.22;99419.81;4127637;28;20220;-45
2023/05/26 07:52:11;;;;;;;4.60;4.20;;;;;;;19.34;70.54;99414.78;4139647;28;20239;-45
2023/05/26 07:54:13;;;;;;;5.53;4.03;;;;;;;19.27;69.69;99417.03;4131693;28;20201;-46
2023/05/26 07:56:15;;;;;;;6.18;4.07;;;;;;;19.07;71.39;99423.47;4125796;28;20205;-45
2023/05/26 07:58:17;;;;;;;8.43;4.60;;;;;;;19.42;68.99;99420.56;4128469;28;20280;-44
2023/05/26 08:00:19;;;;;;;5.97;5.00;;;;;;;19.14;69.20;99423.16;4127108;28;20216;-45
2023/05/26 08:02:21;;;;;;;6.15;5.20;;;;;;;19.41;69.19;99423.63;4139492;28;20234;-45
2023/05/26 08:04:24;;;;;;;5.47;4.00;;;;;;;19.51;69.83;99418.84;4124374;28;20313;-45
2023/05/26 08:07:30;;;;;;;9.30;4.70;;;;;;;19.39;70.31;99425.84;4120478;28;20217;-45
2023/05/26 08:10:39;;;;;;;4.47;3.95;;;;;;;19.64;67.57;99422.97;4124584;28;20614;-46
2023/05/26 08:13:13;;;;;;;4.57;3.83;;;;;;;19.95;65.71;99422.47;4124207;28;20687;-44
2023/05/26 08:15:25;;;;;;;5.93;4.65;;;;;;;19.92;67.15;99425.00;4122442;23;20241;-87
2023/05/26 08:17:37;;;;;;;6.40;4.95;;;;;;;20.09;66.26;99420.72;4106229;28;20237;-89
2023/05/26 08:19:51;;;;;;;6.38;4.47;;;;;;;20.25;66.28;99416.69;4111362;28;20261;-86
2023/05/26 08:22:02;;;;;;;5.65;5.00;;;;;;;20.25;64.57;99418.66;4087219;28;20766;-88
2023/05/26 08:24:26;;;;;;;6.60;4.60;;;;;;;20.42;66.32;99424.63;4091902;28;20814;-85
2023/05/26 08:27:18;;;;;;;6.30;4.18;;;;;;;20.63;64.89;99403.81;4108088;28;20218;-88
2023/05/26 08:29:22;;;;;;;7.20;4.57;;;;;;;20.79;64.06;99410.91;4107898;28;20652;-85
2023/05/26 08:31:30;;;;;;;6.78;4.43;;;;;;;20.59;65.18;99419.47;4121185;28;20209;-86
2023/05/26 08:37:42;;;;;;;;;;;;;;;;;;;;;
2023/05/26 08:39:49;;;;;;;7.82;4.60;;;;;;;20.89;63.56;99416.38;4060111;29;20240;-87
2023/05/26 08:42:22;;;;;;;5.15;4.15;;;;;;;20.76;62.79;99419.81;4102185;28;20963;-86
2023/05/26 08:44:43;;;;;;;5.35;4.18;;;;;;;21.22;62.56;99423.78;4108369;28;20245;-86
2023/05/26 08:50:10;;;;;;;9.57;4.85;;;;;;;21.13;62.42;99420.03;4116463;28;20707;-86
2023/05/26 08:52:18;;;;;;;7.72;5.32;;;;;;;21.36;62.13;99425.56;4090349;28;20285;-87
2023/05/26 08:54:47;;;;;;;8.65;4.47;;;;;;;21.40;61.90;99412.72;4089798;28;20301;-86
2023/05/26 08:57:47;;;;;;;7.82;4.40;;;;;;;21.68;61.80;99428.53;4118644;28;20209;-86
2023/05/26 09:00:40;;;;;;;10.18;4.60;;;;;;;22.00;60.71;99420.25;4114967;28;20205;-86
2023/05/26 09:03:02;;;;;;;4.70;4.20;;;;;;;21.95;59.50;99427.84;4108889;28;20420;-87
2023/05/26 09:05:05;;;;;;;5.93;4.72;;;;;;;21.89;61.54;99417.91;4108606;28;20226;-87
2023/05/26 09:07:08;;;;;;;6.15;5.13;;;;;;;22.24;59.97;99414.56;4083850;28;20215;-87
2023/05/26 09:09:31;;;;;;;7.72;5.75;;;;;;;22.03;58.56;99425.22;4092486;28;20202;-86
2023/05/26 09:12:39;;;;;;;4.88;4.20;;;;;;;22.30;59.44;99424.53;4083950;28;20214;-86
2023/05/26 09:15:01;;;;;;;7.32;3.80;;;;;;;22.39;59.46;99419.91;4107365;28;20272;-84
2023/05/26 09:17:04;;;;;;;5.20;4.28;;;;;;;22.20;58.86;99424.66;4106241;28;20297;-85
2023/05/26 09:19:07;;;;;;;6.70;5.65;;;;;;;21.90;59.03;99430.72;4106400;28;20225;-87
2023/05/26 09:21:09;;;;;;;10.15;4.13;;;;;;;21.40;59.41;99420.25;4126271;28;20300;-86
2023/05/26 09:23:11;;;;;;;5.00;4.50;;;;;;;22.03;59.34;99429.97;4107781;28;20226;-85
2023/05/26 09:25:16;;;;;;;6.65;4.72;;;;;;;22.45;58.71;99433.47;4106188;28;20213;-87
2023/05/26 09:27:36;;;;;;;10.18;4.70;;;;;;;21.88;58.06;99433.81;4112111;28;20230;-86
2023/05/26 09:30:02;;;;;;;6.10;5.13;;;;;;;21.65;58.63;99439.41;4093937;28;20214;-87
2023/05/26 09:32:08;;;;;;;5.53;4.18;;;;;;;21.80;59.97;99436.44;4112000;28;20242;-86
2023/05/26 09:34:37;;;;;;;7.22;4.40;;;;;;;22.14;60.24;99431.47;4098112;28;20236;-88
2023/05/26 09:36:43;;;;;;;9.50;4.45;;;;;;;22.48;58.38;99432.88;4130889;28;20216;-88
2023/05/26 09:38:54;;;;;;;7.38;3.85;;;;;;;22.32;57.80;99433.41;4097671;28;20214;-87
2023/05/26 09:40:56;;;;;;;11.02;4.93;;;;;;;22.33;58.30;99429.47;4107648;28;20775;-87
2023/05/26 09:43:42;;;;;;;6.85;5.68;;;;;;;21.84;58.32;99429.13;4106808;28;20289;-87
2023/05/26 09:45:47;;;;;;;7.25;5.70;;;;;;;21.20;58.59;99426.06;4097119;28;20704;-87
2023/05/26 09:47:56;;;;;;;7.65;5.47;;;;;;;22.08;60.25;99432.66;4099061;28;20301;-87
2023/05/26 09:50:30;;;;;;;5.72;4.75;;;;;;;22.01;59.34;99427.47;4104858;28;20210;-85
2023/05/26 09:52:36;;;;;;;6.95;4.70;;;;;;;22.25;58.25;99432.97;4108284;28;20229;-87
2023/05/26 09:54:38;;;;;;;9.32;5.95;;;;;;;20.87;59.51;99422.28;4107141;28;20250;-86
2023/05/26 09:57:01;;;;;;;7.68;5.68;;;;;;;21.22;61.57;99427.44;4105979;28;20554;-85
2023/05/26 09:59:09;;;;;;;11.70;5.20;;;;;;;21.85;61.41;99428.00;4109055;28;20198;-87
2023/05/26 10:01:13;;;;;;;6.88;4.43;;;;;;;22.00;60.13;99427.78;4111610;28;20300;-87
2023/05/26 10:03:39;;;;;;;6.28;4.57;;;;;;;21.90;59.19;99430.72;4098873;28;20225;-87